sensor_id;sensor_type;location;lat;lon;timestamp;pressure;altitude;pressure_sealevel;temperature
40624;BMP280;26325;48.594;11.650;2023-03-23T00:01:11;96173.34;;;8.35
40624;BMP280;26325;48.594;11.650;2023-03-23T00:03:39;96176.97;;;8.34
40624;BMP280;26325;48.594;11.650;2023-03-23T00:06:08;96169.63;;;8.42
40624;BMP280;26325;48.594;11.650;2023-03-23T00:08:35;96168.84;;;8.41
40624;BMP280;26325;48.594;11.650;2023-03-23T00:11:17;96171.66;;;8.40
40624;BMP280;26325;48.594;11.650;2023-03-23T00:13:45;96170.88;;;8.39
40624;BMP280;26325;48.594;11.650;2023-03-23T00:16:13;96165.91;;;8.17
40624;BMP280;26325;48.594;11.650;2023-03-23T00:18:50;96177.44;;;8.15
40624;BMP280;26325;48.594;11.650;2023-03-23T00:21:30;96167.13;;;8.15
40624;BMP280;26325;48.594;11.650;2023-03-23T00:24:15;96168.69;;;8.32
40624;BMP280;26325;48.594;11.650;2023-03-23T00:26:48;96169.84;;;8.40
40624;BMP280;26325;48.594;11.650;2023-03-23T00:29:16;96163.53;;;8.32
40624;BMP280;26325;48.594;11.650;2023-03-23T00:31:45;96159.03;;;8.22
40624;BMP280;26325;48.594;11.650;2023-03-23T00:34:20;96168.19;;;8.35
40624;BMP280;26325;48.594;11.650;2023-03-23T00:36:49;96162.94;;;8.25
40624;BMP280;26325;48.594;11.650;2023-03-23T00:39:16;96166.34;;;8.14
40624;BMP280;26325;48.594;11.650;2023-03-23T00:41:46;96170.56;;;8.20
40624;BMP280;26325;48.594;11.650;2023-03-23T00:44:17;96170.41;;;8.10
40624;BMP280;26325;48.594;11.650;2023-03-23T00:46:44;96166.97;;;8.21
40624;BMP280;26325;48.594;11.650;2023-03-23T00:49:15;96159.59;;;8.24
40624;BMP280;26325;48.594;11.650;2023-03-23T00:51:41;96161.44;;;8.29
40624;BMP280;26325;48.594;11.650;2023-03-23T00:54:08;96159.19;;;8.32
40624;BMP280;26325;48.594;11.650;2023-03-23T00:56:34;96154.25;;;8.31
40624;BMP280;26325;48.594;11.650;2023-03-23T00:59:00;96146.53;;;8.47
40624;BMP280;26325;48.594;11.650;2023-03-23T01:01:29;96158.47;;;8.37
40624;BMP280;26325;48.594;11.650;2023-03-23T01:03:57;96155.81;;;8.32
40624;BMP280;26325;48.594;11.650;2023-03-23T01:06:27;96157.09;;;8.13
40624;BMP280;26325;48.594;11.650;2023-03-23T01:08:54;96156.38;;;8.18
40624;BMP280;26325;48.594;11.650;2023-03-23T01:11:19;96159.50;;;8.19
40624;BMP280;26325;48.594;11.650;2023-03-23T01:13:45;96154.72;;;8.28
40624;BMP280;26325;48.594;11.650;2023-03-23T01:16:11;96154.97;;;8.10
40624;BMP280;26325;48.594;11.650;2023-03-23T01:18:38;96149.91;;;8.15
40624;BMP280;26325;48.594;11.650;2023-03-23T01:21:09;96150.84;;;8.25
40624;BMP280;26325;48.594;11.650;2023-03-23T01:23:36;96148.03;;;8.27
40624;BMP280;26325;48.594;11.650;2023-03-23T01:26:13;96148.56;;;8.29
40624;BMP280;26325;48.594;11.650;2023-03-23T01:28:39;96145.31;;;8.33
40624;BMP280;26325;48.594;11.650;2023-03-23T01:31:09;96133.22;;;8.34
40624;BMP280;26325;48.594;11.650;2023-03-23T01:33:38;96132.66;;;8.32
40624;BMP280;26325;48.594;11.650;2023-03-23T01:36:15;96133.59;;;8.42
40624;BMP280;26325;48.594;11.650;2023-03-23T01:38:43;96116.41;;;8.47
40624;BMP280;26325;48.594;11.650;2023-03-23T01:41:11;96119.94;;;8.41
40624;BMP280;26325;48.594;11.650;2023-03-23T01:44:04;96124.53;;;8.39
40624;BMP280;26325;48.594;11.650;2023-03-23T01:46:33;96124.88;;;8.43
40624;BMP280;26325;48.594;11.650;2023-03-23T01:49:06;96117.28;;;8.37
40624;BMP280;26325;48.594;11.650;2023-03-23T01:51:37;96116.75;;;8.35
40624;BMP280;26325;48.594;11.650;2023-03-23T01:54:13;96111.44;;;8.41
40624;BMP280;26325;48.594;11.650;2023-03-23T01:57:02;96111.13;;;8.37
40624;BMP280;26325;48.594;11.650;2023-03-23T01:59:29;96109.72;;;8.46
40624;BMP280;26325;48.594;11.650;2023-03-23T02:01:56;96109.56;;;8.37
40624;BMP280;26325;48.594;11.650;2023-03-23T02:04:22;96112.00;;;8.43
40624;BMP280;26325;48.594;11.650;2023-03-23T02:06:48;96116.59;;;8.41
40624;BMP280;26325;48.594;11.650;2023-03-23T02:09:16;96117.28;;;8.37
40624;BMP280;26325;48.594;11.650;2023-03-23T02:11:44;96113.16;;;8.36
40624;BMP280;26325;48.594;11.650;2023-03-23T02:14:10;96107.22;;;8.35
40624;BMP280;26325;48.594;11.650;2023-03-23T02:30:51;96114.31;;;8.44
40624;BMP280;26325;48.594;11.650;2023-03-23T02:33:46;96112.22;;;8.41
40624;BMP280;26325;48.594;11.650;2023-03-23T02:36:14;96112.28;;;8.46
40624;BMP280;26325;48.594;11.650;2023-03-23T02:41:21;96106.19;;;8.52
40624;BMP280;26325;48.594;11.650;2023-03-23T02:43:50;96101.22;;;8.46
40624;BMP280;26325;48.594;11.650;2023-03-23T02:46:17;96105.03;;;8.43
40624;BMP280;26325;48.594;11.650;2023-03-23T02:48:46;96105.81;;;8.44
40624;BMP280;26325;48.594;11.650;2023-03-23T02:51:14;96111.75;;;8.44
40624;BMP280;26325;48.594;11.650;2023-03-23T02:53:42;96103.56;;;8.47
40624;BMP280;26325;48.594;11.650;2023-03-23T02:56:13;96092.25;;;8.48
40624;BMP280;26325;48.594;11.650;2023-03-23T02:58:39;96087.38;;;8.52
40624;BMP280;26325;48.594;11.650;2023-03-23T03:03:52;96081.72;;;8.50
40624;BMP280;26325;48.594;11.650;2023-03-23T03:07:12;96095.19;;;8.56
40624;BMP280;26325;48.594;11.650;2023-03-23T03:13:01;96076.44;;;8.61
40624;BMP280;26325;48.594;11.650;2023-03-23T03:15:36;96099.91;;;8.64
40624;BMP280;26325;48.594;11.650;2023-03-23T03:18:24;96099.22;;;8.69
40624;BMP280;26325;48.594;11.650;2023-03-23T03:21:02;96095.50;;;8.60
40624;BMP280;26325;48.594;11.650;2023-03-23T03:23:31;96082.63;;;8.60
40624;BMP280;26325;48.594;11.650;2023-03-23T03:25:58;96085.63;;;8.73
40624;BMP280;26325;48.594;11.650;2023-03-23T03:28:25;96085.06;;;8.71
40624;BMP280;26325;48.594;11.650;2023-03-23T03:30:57;96091.16;;;8.86
40624;BMP280;26325;48.594;11.650;2023-03-23T03:33:28;96098.97;;;8.91
40624;BMP280;26325;48.594;11.650;2023-03-23T03:35:59;96112.38;;;8.93
40624;BMP280;26325;48.594;11.650;2023-03-23T03:38:26;96106.84;;;9.06
40624;BMP280;26325;48.594;11.650;2023-03-23T03:40:53;96109.16;;;9.02
40624;BMP280;26325;48.594;11.650;2023-03-23T03:43:19;96102.91;;;8.98
40624;BMP280;26325;48.594;11.650;2023-03-23T03:45:45;96103.72;;;9.04
40624;BMP280;26325;48.594;11.650;2023-03-23T03:48:11;96117.16;;;9.06
40624;BMP280;26325;48.594;11.650;2023-03-23T03:50:37;96109.00;;;9.13
40624;BMP280;26325;48.594;11.650;2023-03-23T03:53:03;96122.41;;;9.15
40624;BMP280;26325;48.594;11.650;2023-03-23T03:55:28;96120.16;;;9.19
40624;BMP280;26325;48.594;11.650;2023-03-23T03:57:55;96122.53;;;9.25
40624;BMP280;26325;48.594;11.650;2023-03-23T04:00:23;96127.94;;;9.24
40624;BMP280;26325;48.594;11.650;2023-03-23T04:02:50;96118.34;;;9.19
40624;BMP280;26325;48.594;11.650;2023-03-23T04:05:23;96121.16;;;9.18
40624;BMP280;26325;48.594;11.650;2023-03-23T04:07:50;96110.63;;;9.19
40624;BMP280;26325;48.594;11.650;2023-03-23T04:10:18;96120.16;;;9.19
40624;BMP280;26325;48.594;11.650;2023-03-23T04:12:48;96121.44;;;9.21
40624;BMP280;26325;48.594;11.650;2023-03-23T04:15:15;96109.31;;;9.17
40624;BMP280;26325;48.594;11.650;2023-03-23T04:17:43;96114.25;;;9.23
40624;BMP280;26325;48.594;11.650;2023-03-23T04:20:10;96113.47;;;9.23
40624;BMP280;26325;48.594;11.650;2023-03-23T04:22:47;96125.75;;;9.37
40624;BMP280;26325;48.594;11.650;2023-03-23T04:25:17;96128.84;;;9.39
40624;BMP280;26325;48.594;11.650;2023-03-23T04:27:49;96127.41;;;9.48
40624;BMP280;26325;48.594;11.650;2023-03-23T04:30:20;96121.75;;;9.51
40624;BMP280;26325;48.594;11.650;2023-03-23T04:32:49;96106.84;;;9.52
40624;BMP280;26325;48.594;11.650;2023-03-23T04:35:23;96107.44;;;9.64
40624;BMP280;26325;48.594;11.650;2023-03-23T04:37:52;96124.03;;;9.73
40624;BMP280;26325;48.594;11.650;2023-03-23T04:40:19;96125.16;;;9.82
40624;BMP280;26325;48.594;11.650;2023-03-23T04:42:45;96124.69;;;9.85
40624;BMP280;26325;48.594;11.650;2023-03-23T04:45:15;96130.03;;;10.04
40624;BMP280;26325;48.594;11.650;2023-03-23T04:47:41;96121.75;;;10.02
40624;BMP280;26325;48.594;11.650;2023-03-23T04:50:10;96132.69;;;10.19
40624;BMP280;26325;48.594;11.650;2023-03-23T04:52:38;96127.63;;;10.28
40624;BMP280;26325;48.594;11.650;2023-03-23T04:55:07;96116.84;;;10.41
40624;BMP280;26325;48.594;11.650;2023-03-23T04:57:34;96115.88;;;10.47
40624;BMP280;26325;48.594;11.650;2023-03-23T05:00:02;96121.09;;;10.57
40624;BMP280;26325;48.594;11.650;2023-03-23T05:02:38;96112.81;;;10.55
40624;BMP280;26325;48.594;11.650;2023-03-23T05:05:12;96110.28;;;10.65
40624;BMP280;26325;48.594;11.650;2023-03-23T05:07:39;96121.69;;;10.73
40624;BMP280;26325;48.594;11.650;2023-03-23T05:10:07;96129.47;;;10.78
40624;BMP280;26325;48.594;11.650;2023-03-23T05:12:34;96122.00;;;10.86
40624;BMP280;26325;48.594;11.650;2023-03-23T05:14:59;96111.13;;;10.80
40624;BMP280;26325;48.594;11.650;2023-03-23T05:17:26;96103.13;;;10.81
40624;BMP280;26325;48.594;11.650;2023-03-23T05:19:52;96095.38;;;10.81
40624;BMP280;26325;48.594;11.650;2023-03-23T05:22:18;96088.41;;;10.82
40624;BMP280;26325;48.594;11.650;2023-03-23T05:24:47;96089.69;;;10.79
40624;BMP280;26325;48.594;11.650;2023-03-23T05:27:13;96079.34;;;10.74
40624;BMP280;26325;48.594;11.650;2023-03-23T05:29:40;96092.75;;;10.71
40624;BMP280;26325;48.594;11.650;2023-03-23T05:32:09;96091.72;;;10.72
40624;BMP280;26325;48.594;11.650;2023-03-23T05:34:37;96090.72;;;10.73
40624;BMP280;26325;48.594;11.650;2023-03-23T05:37:03;96089.16;;;10.72
40624;BMP280;26325;48.594;11.650;2023-03-23T05:39:30;96088.88;;;10.69
40624;BMP280;26325;48.594;11.650;2023-03-23T05:41:56;96074.69;;;10.76
40624;BMP280;26325;48.594;11.650;2023-03-23T05:44:24;96074.72;;;10.81
40624;BMP280;26325;48.594;11.650;2023-03-23T05:46:50;96082.47;;;10.86
40624;BMP280;26325;48.594;11.650;2023-03-23T05:49:16;96082.00;;;10.94
40624;BMP280;26325;48.594;11.650;2023-03-23T05:51:43;96073.25;;;11.00
40624;BMP280;26325;48.594;11.650;2023-03-23T05:54:09;96075.38;;;11.27
40624;BMP280;26325;48.594;11.650;2023-03-23T05:56:36;96072.84;;;11.32
40624;BMP280;26325;48.594;11.650;2023-03-23T05:59:04;96074.16;;;11.54
40624;BMP280;26325;48.594;11.650;2023-03-23T06:01:30;96072.38;;;11.69
40624;BMP280;26325;48.594;11.650;2023-03-23T06:03:57;96069.78;;;11.79
40624;BMP280;26325;48.594;11.650;2023-03-23T06:06:28;96068.25;;;12.12
40624;BMP280;26325;48.594;11.650;2023-03-23T06:08:56;96062.03;;;11.98
40624;BMP280;26325;48.594;11.650;2023-03-23T06:11:26;96058.66;;;12.12
40624;BMP280;26325;48.594;11.650;2023-03-23T06:13:53;96066.16;;;12.09
40624;BMP280;26325;48.594;11.650;2023-03-23T06:16:33;96058.41;;;12.09
40624;BMP280;26325;48.594;11.650;2023-03-23T06:19:15;96054.78;;;12.10
40624;BMP280;26325;48.594;11.650;2023-03-23T06:21:44;96059.44;;;12.13
40624;BMP280;26325;48.594;11.650;2023-03-23T06:24:12;96065.63;;;12.26
40624;BMP280;26325;48.594;11.650;2023-03-23T06:26:39;96062.22;;;12.31
40624;BMP280;26325;48.594;11.650;2023-03-23T06:29:07;96057.84;;;12.31
40624;BMP280;26325;48.594;11.650;2023-03-23T06:31:40;96059.13;;;12.38
40624;BMP280;26325;48.594;11.650;2023-03-23T06:34:32;96052.91;;;12.39
40624;BMP280;26325;48.594;11.650;2023-03-23T06:37:00;96050.59;;;12.33
40624;BMP280;26325;48.594;11.650;2023-03-23T06:39:29;96061.97;;;12.37
40624;BMP280;26325;48.594;11.650;2023-03-23T06:41:57;96057.56;;;12.42
40624;BMP280;26325;48.594;11.650;2023-03-23T06:44:25;96060.88;;;12.57
40624;BMP280;26325;48.594;11.650;2023-03-23T06:46:51;96053.66;;;12.64
40624;BMP280;26325;48.594;11.650;2023-03-23T06:49:16;96066.59;;;12.55
40624;BMP280;26325;48.594;11.650;2023-03-23T06:51:42;96059.63;;;12.55
40624;BMP280;26325;48.594;11.650;2023-03-23T06:54:07;96072.03;;;12.53
40624;BMP280;26325;48.594;11.650;2023-03-23T06:56:33;96070.72;;;12.60
40624;BMP280;26325;48.594;11.650;2023-03-23T06:59:04;96064.00;;;12.55
40624;BMP280;26325;48.594;11.650;2023-03-23T07:01:34;96068.66;;;12.48
40624;BMP280;26325;48.594;11.650;2023-03-23T07:04:08;96074.59;;;12.58
40624;BMP280;26325;48.594;11.650;2023-03-23T07:06:34;96085.50;;;12.55
40624;BMP280;26325;48.594;11.650;2023-03-23T07:09:00;96065.06;;;12.54
40624;BMP280;26325;48.594;11.650;2023-03-23T07:11:27;96063.19;;;12.74
40624;BMP280;26325;48.594;11.650;2023-03-23T07:14:00;96068.09;;;12.75
40624;BMP280;26325;48.594;11.650;2023-03-23T07:16:35;96077.44;;;12.81
40624;BMP280;26325;48.594;11.650;2023-03-23T07:19:05;96069.13;;;12.74
40624;BMP280;26325;48.594;11.650;2023-03-23T07:21:47;96075.59;;;12.86
40624;BMP280;26325;48.594;11.650;2023-03-23T07:24:34;96075.84;;;12.85
40624;BMP280;26325;48.594;11.650;2023-03-23T07:27:00;96068.38;;;12.78
40624;BMP280;26325;48.594;11.650;2023-03-23T07:29:41;96071.72;;;12.79
40624;BMP280;26325;48.594;11.650;2023-03-23T07:32:10;96072.16;;;13.05
40624;BMP280;26325;48.594;11.650;2023-03-23T07:34:37;96060.00;;;12.91
40624;BMP280;26325;48.594;11.650;2023-03-23T07:37:04;96057.75;;;13.27
40624;BMP280;26325;48.594;11.650;2023-03-23T07:39:29;96052.50;;;13.42
40624;BMP280;26325;48.594;11.650;2023-03-23T07:41:56;96060.91;;;13.67
40624;BMP280;26325;48.594;11.650;2023-03-23T07:44:22;96062.91;;;13.74
40624;BMP280;26325;48.594;11.650;2023-03-23T07:46:47;96064.38;;;13.85
40624;BMP280;26325;48.594;11.650;2023-03-23T07:49:15;96066.97;;;13.85
40624;BMP280;26325;48.594;11.650;2023-03-23T07:51:50;96071.31;;;13.94
40624;BMP280;26325;48.594;11.650;2023-03-23T07:54:25;96071.44;;;14.12
40624;BMP280;26325;48.594;11.650;2023-03-23T07:56:54;96062.88;;;14.40
40624;BMP280;26325;48.594;11.650;2023-03-23T07:59:22;96064.97;;;14.38
40624;BMP280;26325;48.594;11.650;2023-03-23T08:01:48;96074.56;;;14.37
40624;BMP280;26325;48.594;11.650;2023-03-23T08:04:13;96071.88;;;14.47
40624;BMP280;26325;48.594;11.650;2023-03-23T08:06:40;96073.41;;;14.25
40624;BMP280;26325;48.594;11.650;2023-03-23T08:09:05;96074.69;;;14.28
40624;BMP280;26325;48.594;11.650;2023-03-23T08:11:36;96081.13;;;14.35
40624;BMP280;26325;48.594;11.650;2023-03-23T08:14:04;96082.69;;;14.59
40624;BMP280;26325;48.594;11.650;2023-03-23T08:16:32;96088.66;;;14.59
40624;BMP280;26325;48.594;11.650;2023-03-23T08:19:07;96079.25;;;14.63
40624;BMP280;26325;48.594;11.650;2023-03-23T08:21:35;96088.72;;;14.77
40624;BMP280;26325;48.594;11.650;2023-03-23T08:24:10;96083.00;;;15.03
40624;BMP280;26325;48.594;11.650;2023-03-23T08:26:41;96092.22;;;15.14
40624;BMP280;26325;48.594;11.650;2023-03-23T08:29:09;96090.72;;;15.08
40624;BMP280;26325;48.594;11.650;2023-03-23T08:31:34;96093.44;;;15.21
40624;BMP280;26325;48.594;11.650;2023-03-23T08:34:04;96102.16;;;15.66
40624;BMP280;26325;48.594;11.650;2023-03-23T08:36:34;96093.88;;;15.82
40624;BMP280;26325;48.594;11.650;2023-03-23T08:39:04;96095.84;;;15.90
40624;BMP280;26325;48.594;11.650;2023-03-23T08:41:32;96089.00;;;15.94
40624;BMP280;26325;48.594;11.650;2023-03-23T08:43:58;96101.13;;;15.85
40624;BMP280;26325;48.594;11.650;2023-03-23T08:46:23;96095.88;;;16.21
40624;BMP280;26325;48.594;11.650;2023-03-23T08:48:53;96099.84;;;16.50
40624;BMP280;26325;48.594;11.650;2023-03-23T08:51:57;96107.69;;;16.32
40624;BMP280;26325;48.594;11.650;2023-03-23T08:54:23;96108.28;;;15.93
40624;BMP280;26325;48.594;11.650;2023-03-23T08:56:49;96115.53;;;15.96
40624;BMP280;26325;48.594;11.650;2023-03-23T08:59:14;96121.00;;;15.99
40624;BMP280;26325;48.594;11.650;2023-03-23T09:01:40;96118.66;;;15.98
40624;BMP280;26325;48.594;11.650;2023-03-23T09:04:18;96118.03;;;16.05
40624;BMP280;26325;48.594;11.650;2023-03-23T09:06:45;96115.25;;;16.33
40624;BMP280;26325;48.594;11.650;2023-03-23T09:09:17;96111.03;;;16.19
40624;BMP280;26325;48.594;11.650;2023-03-23T09:11:54;96116.88;;;16.11
40624;BMP280;26325;48.594;11.650;2023-03-23T09:14:24;96118.59;;;16.02
40624;BMP280;26325;48.594;11.650;2023-03-23T09:16:49;96121.38;;;15.88
40624;BMP280;26325;48.594;11.650;2023-03-23T09:19:29;96130.47;;;15.90
40624;BMP280;26325;48.594;11.650;2023-03-23T09:21:55;96125.59;;;15.84
40624;BMP280;26325;48.594;11.650;2023-03-23T09:24:21;96122.22;;;15.83
40624;BMP280;26325;48.594;11.650;2023-03-23T09:26:47;96132.63;;;15.83
40624;BMP280;26325;48.594;11.650;2023-03-23T09:29:19;96129.84;;;15.80
40624;BMP280;26325;48.594;11.650;2023-03-23T09:31:54;96131.94;;;15.78
40624;BMP280;26325;48.594;11.650;2023-03-23T09:34:29;96118.03;;;16.05
40624;BMP280;26325;48.594;11.650;2023-03-23T09:37:05;96124.41;;;16.13
40624;BMP280;26325;48.594;11.650;2023-03-23T09:39:37;96124.44;;;16.26
40624;BMP280;26325;48.594;11.650;2023-03-23T09:50:35;96112.53;;;16.82
40624;BMP280;26325;48.594;11.650;2023-03-23T09:53:09;96109.59;;;17.02
40624;BMP280;26325;48.594;11.650;2023-03-23T09:55:43;96110.25;;;17.07
40624;BMP280;26325;48.594;11.650;2023-03-23T09:58:35;96108.97;;;17.05
40624;BMP280;26325;48.594;11.650;2023-03-23T10:01:38;96109.94;;;17.35
40624;BMP280;26325;48.594;11.650;2023-03-23T10:04:27;96112.25;;;17.23
40624;BMP280;26325;48.594;11.650;2023-03-23T10:07:05;96124.16;;;17.03
40624;BMP280;26325;48.594;11.650;2023-03-23T10:09:36;96117.19;;;17.25
40624;BMP280;26325;48.594;11.650;2023-03-23T10:12:44;96134.31;;;17.44
40624;BMP280;26325;48.594;11.650;2023-03-23T10:15:20;96115.34;;;17.52
40624;BMP280;26325;48.594;11.650;2023-03-23T10:25:52;96129.66;;;17.41
40624;BMP280;26325;48.594;11.650;2023-03-23T10:28:46;96129.94;;;17.39
40624;BMP280;26325;48.594;11.650;2023-03-23T10:31:44;96127.72;;;17.81
40624;BMP280;26325;48.594;11.650;2023-03-23T10:34:29;96122.84;;;18.14
40624;BMP280;26325;48.594;11.650;2023-03-23T10:37:02;96123.06;;;18.26
40624;BMP280;26325;48.594;11.650;2023-03-23T10:39:44;96120.09;;;18.40
40624;BMP280;26325;48.594;11.650;2023-03-23T10:42:30;96120.97;;;18.36
40624;BMP280;26325;48.594;11.650;2023-03-23T10:45:27;96120.78;;;18.54
40624;BMP280;26325;48.594;11.650;2023-03-23T10:48:28;96118.06;;;18.37
40624;BMP280;26325;48.594;11.650;2023-03-23T10:51:20;96123.03;;;18.90
40624;BMP280;26325;48.594;11.650;2023-03-23T10:54:00;96126.25;;;18.66
40624;BMP280;26325;48.594;11.650;2023-03-23T10:56:35;96120.53;;;18.85
40624;BMP280;26325;48.594;11.650;2023-03-23T10:59:29;96110.38;;;18.84
40624;BMP280;26325;48.594;11.650;2023-03-23T11:01:58;96125.63;;;19.28
40624;BMP280;26325;48.594;11.650;2023-03-23T11:04:25;96121.66;;;19.39
40624;BMP280;26325;48.594;11.650;2023-03-23T11:06:58;96131.16;;;19.18
40624;BMP280;26325;48.594;11.650;2023-03-23T11:09:56;96123.78;;;18.69
40624;BMP280;26325;48.594;11.650;2023-03-23T11:12:24;96125.81;;;18.21
40624;BMP280;26325;48.594;11.650;2023-03-23T11:14:50;96133.03;;;18.02
40624;BMP280;26325;48.594;11.650;2023-03-23T11:17:24;96125.03;;;18.20
40624;BMP280;26325;48.594;11.650;2023-03-23T11:19:53;96122.47;;;18.29
40624;BMP280;26325;48.594;11.650;2023-03-23T11:22:32;96119.59;;;18.81
40624;BMP280;26325;48.594;11.650;2023-03-23T11:25:04;96123.63;;;19.25
40624;BMP280;26325;48.594;11.650;2023-03-23T11:27:32;96131.41;;;19.08
40624;BMP280;26325;48.594;11.650;2023-03-23T11:30:30;96124.19;;;18.84
40624;BMP280;26325;48.594;11.650;2023-03-23T11:33:01;96131.34;;;18.70
40624;BMP280;26325;48.594;11.650;2023-03-23T11:35:28;96129.00;;;18.82
40624;BMP280;26325;48.594;11.650;2023-03-23T11:38:00;96127.44;;;19.19
40624;BMP280;26325;48.594;11.650;2023-03-23T11:40:48;96122.84;;;19.79
40624;BMP280;26325;48.594;11.650;2023-03-23T11:43:19;96141.38;;;19.45
40624;BMP280;26325;48.594;11.650;2023-03-23T11:46:13;96134.88;;;19.26
40624;BMP280;26325;48.594;11.650;2023-03-23T11:51:27;96121.94;;;20.17
40624;BMP280;26325;48.594;11.650;2023-03-23T11:56:42;96122.72;;;20.42
40624;BMP280;26325;48.594;11.650;2023-03-23T11:59:32;96131.63;;;20.58
40624;BMP280;26325;48.594;11.650;2023-03-23T12:05:52;96119.63;;;20.40
40624;BMP280;26325;48.594;11.650;2023-03-23T12:17:17;96125.31;;;20.25
40624;BMP280;26325;48.594;11.650;2023-03-23T12:26:20;96129.81;;;20.08
40624;BMP280;26325;48.594;11.650;2023-03-23T12:33:19;96120.84;;;19.93
40624;BMP280;26325;48.594;11.650;2023-03-23T12:36:11;96127.47;;;19.99
40624;BMP280;26325;48.594;11.650;2023-03-23T12:44:26;96132.69;;;19.74
40624;BMP280;26325;48.594;11.650;2023-03-23T12:50:27;96130.69;;;19.79
40624;BMP280;26325;48.594;11.650;2023-03-23T12:53:17;96128.41;;;19.69
40624;BMP280;26325;48.594;11.650;2023-03-23T12:56:12;96139.06;;;19.35
40624;BMP280;26325;48.594;11.650;2023-03-23T12:59:07;96128.88;;;18.95
40624;BMP280;26325;48.594;11.650;2023-03-23T13:01:59;96131.34;;;18.92
40624;BMP280;26325;48.594;11.650;2023-03-23T13:04:37;96122.81;;;18.78
40624;BMP280;26325;48.594;11.650;2023-03-23T13:07:14;96132.03;;;18.54
40624;BMP280;26325;48.594;11.650;2023-03-23T13:12:49;96123.88;;;18.34
40624;BMP280;26325;48.594;11.650;2023-03-23T13:16:08;96121.03;;;18.44
40624;BMP280;26325;48.594;11.650;2023-03-23T13:22:04;96114.47;;;18.76
40624;BMP280;26325;48.594;11.650;2023-03-23T13:25:07;96115.13;;;18.60
40624;BMP280;26325;48.594;11.650;2023-03-23T13:27:41;96111.63;;;18.65
40624;BMP280;26325;48.594;11.650;2023-03-23T13:30:20;96107.69;;;18.75
40624;BMP280;26325;48.594;11.650;2023-03-23T13:33:12;96105.00;;;18.67
40624;BMP280;26325;48.594;11.650;2023-03-23T13:35:41;96101.13;;;18.86
40624;BMP280;26325;48.594;11.650;2023-03-23T13:38:35;96093.03;;;18.66
40624;BMP280;26325;48.594;11.650;2023-03-23T13:41:11;96099.91;;;18.84
40624;BMP280;26325;48.594;11.650;2023-03-23T13:43:42;96105.09;;;18.54
40624;BMP280;26325;48.594;11.650;2023-03-23T13:49:44;96081.16;;;18.90
40624;BMP280;26325;48.594;11.650;2023-03-23T13:51:59;96086.44;;;18.98
40624;BMP280;26325;48.594;11.650;2023-03-23T13:54:39;96086.44;;;18.98
40624;BMP280;26325;48.594;11.650;2023-03-23T14:00:25;96093.56;;;18.76
40624;BMP280;26325;48.594;11.650;2023-03-23T14:03:32;96084.84;;;18.89
40624;BMP280;26325;48.594;11.650;2023-03-23T14:11:16;96070.34;;;19.21
40624;BMP280;26325;48.594;11.650;2023-03-23T14:14:05;96076.50;;;19.25
40624;BMP280;26325;48.594;11.650;2023-03-23T14:19:27;96063.22;;;19.93
40624;BMP280;26325;48.594;11.650;2023-03-23T14:22:00;96062.13;;;20.02
40624;BMP280;26325;48.594;11.650;2023-03-23T14:24:39;96067.97;;;19.66
40624;BMP280;26325;48.594;11.650;2023-03-23T14:29:31;96065.06;;;19.67
40624;BMP280;26325;48.594;11.650;2023-03-23T14:31:58;96066.28;;;20.03
40624;BMP280;26325;48.594;11.650;2023-03-23T14:34:31;96059.78;;;20.42
40624;BMP280;26325;48.594;11.650;2023-03-23T14:37:00;96071.91;;;20.71
40624;BMP280;26325;48.594;11.650;2023-03-23T14:39:31;96067.47;;;20.22
40624;BMP280;26325;48.594;11.650;2023-03-23T14:42:11;96066.09;;;20.24
40624;BMP280;26325;48.594;11.650;2023-03-23T14:44:47;96071.22;;;19.88
40624;BMP280;26325;48.594;11.650;2023-03-23T14:47:25;96076.31;;;19.68
40624;BMP280;26325;48.594;11.650;2023-03-23T14:49:58;96065.38;;;19.91
40624;BMP280;26325;48.594;11.650;2023-03-23T14:52:35;96074.00;;;19.75
40624;BMP280;26325;48.594;11.650;2023-03-23T14:55:17;96072.59;;;19.06
40624;BMP280;26325;48.594;11.650;2023-03-23T14:57:47;96075.91;;;18.82
40624;BMP280;26325;48.594;11.650;2023-03-23T15:00:15;96067.03;;;18.91
40624;BMP280;26325;48.594;11.650;2023-03-23T15:02:51;96069.47;;;18.58
40624;BMP280;26325;48.594;11.650;2023-03-23T15:05:31;96062.78;;;18.73
40624;BMP280;26325;48.594;11.650;2023-03-23T15:08:23;96062.28;;;18.71
40624;BMP280;26325;48.594;11.650;2023-03-23T15:13:26;96067.88;;;18.49
40624;BMP280;26325;48.594;11.650;2023-03-23T15:15:51;96061.63;;;18.36
40624;BMP280;26325;48.594;11.650;2023-03-23T15:18:30;96056.06;;;18.30
40624;BMP280;26325;48.594;11.650;2023-03-23T15:21:08;96057.19;;;18.15
40624;BMP280;26325;48.594;11.650;2023-03-23T15:23:42;96058.34;;;18.01
40624;BMP280;26325;48.594;11.650;2023-03-23T15:26:43;96053.34;;;17.92
40624;BMP280;26325;48.594;11.650;2023-03-23T15:31:48;96061.59;;;17.72
40624;BMP280;26325;48.594;11.650;2023-03-23T15:34:36;96056.91;;;17.61
40624;BMP280;26325;48.594;11.650;2023-03-23T15:37:28;96070.25;;;17.59
40624;BMP280;26325;48.594;11.650;2023-03-23T15:39:56;96065.03;;;17.59
40624;BMP280;26325;48.594;11.650;2023-03-23T15:42:34;96061.88;;;17.49
40624;BMP280;26325;48.594;11.650;2023-03-23T15:52:43;96061.56;;;17.51
40624;BMP280;26325;48.594;11.650;2023-03-23T15:57:54;96060.25;;;17.40
40624;BMP280;26325;48.594;11.650;2023-03-23T16:00:23;96063.13;;;17.52
40624;BMP280;26325;48.594;11.650;2023-03-23T16:02:56;96062.75;;;17.45
40624;BMP280;26325;48.594;11.650;2023-03-23T16:05:26;96058.13;;;17.42
40624;BMP280;26325;48.594;11.650;2023-03-23T16:07:57;96067.81;;;17.28
40624;BMP280;26325;48.594;11.650;2023-03-23T16:10:28;96064.44;;;17.28
40624;BMP280;26325;48.594;11.650;2023-03-23T16:12:53;96073.72;;;17.20
40624;BMP280;26325;48.594;11.650;2023-03-23T16:15:19;96063.94;;;17.13
40624;BMP280;26325;48.594;11.650;2023-03-23T16:17:45;96061.66;;;17.11
40624;BMP280;26325;48.594;11.650;2023-03-23T16:20:20;96063.50;;;17.11
40624;BMP280;26325;48.594;11.650;2023-03-23T16:22:47;96061.66;;;16.98
40624;BMP280;26325;48.594;11.650;2023-03-23T16:25:14;96060.25;;;16.87
40624;BMP280;26325;48.594;11.650;2023-03-23T16:27:42;96070.53;;;16.84